Dillon, CO

3:46 AM MDT on August 21, 2014 (GMT -0600)
RAWS SODA CREEK CO US | Change Station
CLOSE
Current Station
Personal Weather Station
Location: Dillon, CO
Elevation: 9578 ft
Nearby Weather Stations

Elev 9578 ft 39.56 °N, 105.99 °W | Updated 50 minutes ago

Clear
Clear
43 °F
Feels Like 43 °F
N
2
Wind Variable Wind from NE
Gusts 4.0 mph

Today
High -- | Low -- °F
--% Chance of Precip.
Yesterday
High -- | Low -- °F
Precip. -- in
6:22 AM 7:51 PM
Waning Crescent, 15% visible
Pressure 29.90 in
Visibility 10.0 miles
Clouds Clear
Windchill 43 °F
Dew Point 39 °F
Humidity 86%
Rainfall 0.00 in
Snow Depth 0 in , 0 in
UV 0 out of 12
Pollen 9.60 out of 12
Air Quality Not available.
Flu Activity Not available.
METAR KLXV 210853Z AUTO 04003KT 10SM CLR 06/03 A3036 RMK AO2 SLP124 T00560028 50001

More Conditions Fewer Conditions

Pressure 29.90 in
Visibility 10.0 miles
Clouds Clear
Windchill 43 °F
Dew Point 39 °F
Humidity 86%
Rainfall 0.00 in
Snow Depth 0 in , 0 in
UV 0 out of 12
Pollen 9.60 out of 12
Air Quality Not available.
Flu Activity Not available.
METAR KLXV 210853Z AUTO 04003KT 10SM CLR 06/03 A3036 RMK AO2 SLP124 T00560028 50001

More Conditions Fewer Conditions

10-Day Weather Forecast

Almanac

Astronomy

Aug. 21, 2014 Rise Set
Actual Time 6:22 AM MDT 7:51 PM MDT
Civil Twilight 5:53 AM MDT 8:19 PM MDT
Nautical Twilight 5:19 AM MDT 8:53 PM MDT
Astronomical Twilight 4:43 AM MDT 9:29 PM MDT
Moon 2:55 AM MDT 5:21 PM MDT
Length of Visible Light 14h 25m
Length of Day
13h 29m
Tomorrow will be 2m 23s shorter.
Waning Crescent, 15% of the Moon is Illuminated
Today
Waning Crescent
Aug 25
New
Sep 2
First Quarter
Sep 8
Full
Sep 15
Last Quarter

Today's Extremes

State Highs State Lows

Community

WunderPhotos

Upload Photos

1,745,871 photos uploaded!

Nearby

Snow Depth

Station Depth Elevation
Michigan Creek 0 in 10600 ft
Grizzly Peak 0 in 11100 ft
Loveland Basin 3 in 11400 ft
Jackwhacker Gulch 0 in 10960 ft
Copper Mountain 0 in 10500 ft

Earthquake Activity

City Distance Mag. Time & Date
No recent earthquake activity has been reported nearby.
Minimum magnitude displayed is 2.5.

Coastal Water Temperatures

Place Temperature
No Stations Reporting

Nearby Weather Stations